createdAt,value
2023-05-10T00:00:56.462Z,12.68
2023-05-10T00:03:23.395Z,12.67
2023-05-10T00:05:50.135Z,12.67
2023-05-10T00:08:16.759Z,12.67
2023-05-10T00:10:43.619Z,12.66
2023-05-10T00:13:10.378Z,12.68
2023-05-10T00:15:37.143Z,12.60
2023-05-10T00:18:03.857Z,12.64
2023-05-10T00:20:30.790Z,12.64
2023-05-10T00:22:57.530Z,12.67
2023-05-10T00:25:24.302Z,12.66
2023-05-10T00:27:51.157Z,12.67
2023-05-10T00:30:18.155Z,12.68
2023-05-10T00:32:45.360Z,12.63
2023-05-10T00:35:12.240Z,12.64
2023-05-10T00:37:38.889Z,12.64
2023-05-10T00:40:07.406Z,12.62
2023-05-10T00:42:34.520Z,12.66
2023-05-10T00:45:01.057Z,12.67
2023-05-10T00:47:28.165Z,12.70
2023-05-10T00:49:55.289Z,12.78
2023-05-10T00:52:21.994Z,12.84
2023-05-10T00:54:48.839Z,12.88
2023-05-10T00:57:15.925Z,12.95
2023-05-10T00:59:42.677Z,13.00
2023-05-10T01:02:09.640Z,13.03
2023-05-10T01:04:36.708Z,13.03
2023-05-10T01:07:03.495Z,13.01
2023-05-10T01:09:30.178Z,13.00
2023-05-10T01:11:57.752Z,13.03
2023-05-10T01:14:26.218Z,13.02
2023-05-10T01:16:54.332Z,12.96
2023-05-10T01:19:26.509Z,12.91
2023-05-10T01:22:30.292Z,12.90
2023-05-10T01:25:06.119Z,12.87
2023-05-10T01:27:50.837Z,12.85
2023-05-10T01:33:09.066Z,12.83
2023-05-10T01:35:49.577Z,12.83
2023-05-10T01:38:48.476Z,12.80
2023-05-10T01:41:17.791Z,12.72
2023-05-10T01:43:56.841Z,12.75
2023-05-10T01:46:33.873Z,12.72
2023-05-10T01:49:03.451Z,12.71
2023-05-10T01:51:40.531Z,12.74
2023-05-10T01:54:09.297Z,12.70
2023-05-10T01:56:38.814Z,12.64
2023-05-10T01:59:14.440Z,12.65
2023-05-10T02:01:41.698Z,12.67
2023-05-10T02:04:11.139Z,12.68
2023-05-10T02:06:39.341Z,12.64
2023-05-10T02:09:07.748Z,12.60
2023-05-10T02:11:34.798Z,12.60
2023-05-10T02:14:02.413Z,12.62
2023-05-10T02:16:31.987Z,12.60
2023-05-10T02:19:00.706Z,12.60
2023-05-10T02:21:29.120Z,12.62
2023-05-10T02:23:57.595Z,12.61
2023-05-10T02:26:26.228Z,12.54
2023-05-10T02:28:55.807Z,12.56
2023-05-10T02:31:23.408Z,12.57
2023-05-10T02:33:51.047Z,12.57
2023-05-10T02:36:18.574Z,12.55
2023-05-10T02:38:47.144Z,12.58
2023-05-10T02:41:14.206Z,12.55
2023-05-10T02:43:42.181Z,12.56
2023-05-10T02:46:09.002Z,12.57
2023-05-10T02:48:35.794Z,12.57
2023-05-10T02:51:08.154Z,12.57
2023-05-10T02:53:38.927Z,12.46
2023-05-10T02:56:12.053Z,12.45
2023-05-10T02:58:38.749Z,12.46
2023-05-10T03:01:05.503Z,12.47
2023-05-10T03:03:32.132Z,12.45
2023-05-10T03:05:59.508Z,12.48
2023-05-10T03:08:26.411Z,12.50
2023-05-10T03:11:17.562Z,12.48
2023-05-10T03:13:49.619Z,12.50
2023-05-10T03:16:23.423Z,12.52
2023-05-10T03:18:54.986Z,12.49
2023-05-10T03:21:24.215Z,12.47
2023-05-10T03:24:01.442Z,12.45
2023-05-10T03:26:29.498Z,12.44
2023-05-10T03:28:56.999Z,12.41
2023-05-10T03:31:23.706Z,12.44
2023-05-10T03:33:51.756Z,12.39
2023-05-10T03:36:18.889Z,12.39
2023-05-10T03:38:45.814Z,12.40
2023-05-10T03:41:12.603Z,12.43
2023-05-10T03:43:39.510Z,12.45
2023-05-10T03:46:07.089Z,12.47
2023-05-10T03:48:34.369Z,12.45
2023-05-10T03:51:01.043Z,12.46
2023-05-10T03:53:28.019Z,12.46
2023-05-10T03:55:54.727Z,12.44
2023-05-10T03:58:21.426Z,12.45
2023-05-10T04:00:48.062Z,12.46
2023-05-10T04:03:15.148Z,12.41
2023-05-10T04:05:41.942Z,12.43
2023-05-10T04:08:08.533Z,12.44
2023-05-10T04:10:35.390Z,12.47
2023-05-10T04:13:02.272Z,12.48
2023-05-10T04:15:28.993Z,12.37
2023-05-10T04:17:55.673Z,12.34
2023-05-10T04:20:22.346Z,12.32
2023-05-10T04:22:48.970Z,12.23
2023-05-10T04:25:15.602Z,12.24
2023-05-10T04:27:42.669Z,12.23
2023-05-10T04:30:09.887Z,12.23
2023-05-10T04:32:36.496Z,12.20
2023-05-10T04:35:05.738Z,12.08
2023-05-10T04:37:32.383Z,12.18
2023-05-10T04:40:00.946Z,12.24
2023-05-10T04:42:27.522Z,12.25
2023-05-10T04:44:54.217Z,12.26
2023-05-10T04:47:20.947Z,12.17
2023-05-10T04:49:47.699Z,12.21
2023-05-10T04:52:15.391Z,12.08
2023-05-10T04:54:41.983Z,12.06
2023-05-10T04:57:08.794Z,12.05
2023-05-10T04:59:38.158Z,12.07
2023-05-10T05:02:05.847Z,12.19
2023-05-10T05:04:32.726Z,12.25
2023-05-10T05:06:59.327Z,12.27
2023-05-10T05:09:25.928Z,12.26
2023-05-10T05:11:52.590Z,12.33
2023-05-10T05:14:19.240Z,12.29
2023-05-10T05:16:45.815Z,12.18
2023-05-10T05:19:12.663Z,12.20
2023-05-10T05:21:39.641Z,12.24
2023-05-10T05:24:06.889Z,12.33
2023-05-10T05:26:33.508Z,12.37
2023-05-10T05:29:00.147Z,12.30
2023-05-10T05:31:27.026Z,12.26
2023-05-10T05:33:53.641Z,12.26
2023-05-10T05:36:20.229Z,12.28
2023-05-10T05:38:46.797Z,12.38
2023-05-10T05:41:13.439Z,12.45
2023-05-10T05:43:40.279Z,12.45
2023-05-10T05:46:07.459Z,12.44
2023-05-10T05:48:34.042Z,12.40
2023-05-10T05:51:00.700Z,12.44
2023-05-10T05:53:27.444Z,12.53
2023-05-10T05:55:59.305Z,12.62
2023-05-10T05:58:26.967Z,12.64
2023-05-10T06:00:53.740Z,12.62
2023-05-10T06:03:21.080Z,12.64
2023-05-10T06:05:48.905Z,12.72
2023-05-10T06:08:15.717Z,12.74
2023-05-10T06:10:42.404Z,12.71
2023-05-10T06:13:09.105Z,12.79
2023-05-10T06:15:35.895Z,12.82
2023-05-10T06:18:02.568Z,12.81
2023-05-10T06:20:29.252Z,12.83
2023-05-10T06:22:55.902Z,12.90
2023-05-10T06:25:22.612Z,12.92
2023-05-10T06:27:53.449Z,12.89
2023-05-10T06:30:21.292Z,12.72
2023-05-10T06:32:48.189Z,12.87
2023-05-10T06:35:15.011Z,12.96
2023-05-10T06:37:42.078Z,12.84
2023-05-10T06:40:09.081Z,12.96
2023-05-10T06:42:35.759Z,13.02
2023-05-10T06:45:02.450Z,13.05
2023-05-10T06:47:29.060Z,13.07
2023-05-10T06:49:56.813Z,13.01
2023-05-10T06:52:24.174Z,13.13
2023-05-10T06:54:50.846Z,13.15
2023-05-10T06:57:30.586Z,13.18
2023-05-10T06:59:58.934Z,13.16
2023-05-10T07:02:25.701Z,13.16
2023-05-10T07:04:53.159Z,13.18
2023-05-10T07:07:20.139Z,13.23
2023-05-10T07:09:47.090Z,13.21
2023-05-10T07:12:15.313Z,13.12
2023-05-10T07:14:43.050Z,13.11
2023-05-10T07:17:09.971Z,13.15
2023-05-10T07:19:37.037Z,13.23
2023-05-10T07:22:04.068Z,13.27
2023-05-10T07:24:32.316Z,13.45
2023-05-10T07:26:59.313Z,13.32
2023-05-10T07:29:26.166Z,13.56
2023-05-10T07:31:53.079Z,13.44
2023-05-10T07:34:19.814Z,13.42
2023-05-10T07:36:46.518Z,13.58
2023-05-10T07:39:18.589Z,13.68
2023-05-10T07:41:53.027Z,13.73
2023-05-10T07:44:21.251Z,13.80
2023-05-10T07:46:48.737Z,13.82
2023-05-10T07:49:15.423Z,13.83
2023-05-10T07:51:43.394Z,13.94
2023-05-10T07:54:10.118Z,13.96
2023-05-10T07:56:37.214Z,13.84
2023-05-10T07:59:07.453Z,14.02
2023-05-10T08:01:35.463Z,14.09
2023-05-10T08:04:02.912Z,14.09
2023-05-10T08:06:30.953Z,14.29
2023-05-10T08:08:58.076Z,14.44
2023-05-10T08:11:24.873Z,14.67
2023-05-10T08:13:52.458Z,14.65
2023-05-10T08:16:19.323Z,14.53
2023-05-10T08:18:48.099Z,14.64
2023-05-10T08:21:15.865Z,14.27
2023-05-10T08:23:44.737Z,14.50
2023-05-10T08:26:11.830Z,14.68
2023-05-10T08:28:38.628Z,14.79
2023-05-10T08:31:06.318Z,14.87
2023-05-10T08:33:33.135Z,14.81
2023-05-10T08:35:59.885Z,15.20
2023-05-10T08:38:27.018Z,15.57
2023-05-10T08:40:59.535Z,15.75
2023-05-10T08:43:30.268Z,15.86
2023-05-10T08:45:58.017Z,15.65
2023-05-10T08:48:26.076Z,15.59
2023-05-10T08:50:57.496Z,15.11
2023-05-10T08:53:27.806Z,15.14
2023-05-10T08:55:54.826Z,15.06
2023-05-10T08:58:21.547Z,15.11
2023-05-10T09:00:51.942Z,14.80
2023-05-10T09:03:19.182Z,14.98
2023-05-10T09:05:47.017Z,14.84
2023-05-10T09:08:16.797Z,14.91
2023-05-10T09:10:45.035Z,14.91
2023-05-10T09:13:12.898Z,14.99
2023-05-10T09:15:40.072Z,14.99
2023-05-10T09:18:07.037Z,14.99
2023-05-10T09:20:33.769Z,15.12
2023-05-10T09:23:00.594Z,15.04
2023-05-10T09:25:27.465Z,15.00
2023-05-10T09:27:54.468Z,15.10
2023-05-10T09:30:29.208Z,15.17
2023-05-10T09:32:57.142Z,15.13
2023-05-10T09:35:28.830Z,15.17
2023-05-10T09:37:58.756Z,15.10
2023-05-10T09:40:27.381Z,14.78
2023-05-10T09:43:01.769Z,15.01
2023-05-10T09:45:32.950Z,15.09
2023-05-10T09:48:01.810Z,15.09
2023-05-10T09:50:29.135Z,15.06
2023-05-10T09:53:01.667Z,15.18
2023-05-10T09:55:50.318Z,15.23
2023-05-10T09:58:17.138Z,15.24
2023-05-10T10:00:45.957Z,15.40
2023-05-10T10:03:21.104Z,15.46
2023-05-10T10:05:49.530Z,15.55
2023-05-10T10:08:17.757Z,15.63
2023-05-10T10:10:47.540Z,15.88
2023-05-10T10:13:15.816Z,16.13
2023-05-10T10:15:45.111Z,16.19
2023-05-10T10:18:18.140Z,16.62
2023-05-10T10:20:44.959Z,16.76
2023-05-10T10:23:11.610Z,16.59
2023-05-10T10:25:39.689Z,16.11
2023-05-10T10:28:27.554Z,16.10
2023-05-10T10:30:57.500Z,16.26
2023-05-10T10:33:48.602Z,16.09
2023-05-10T10:36:16.592Z,16.01
2023-05-10T10:38:49.274Z,15.94
2023-05-10T10:41:28.966Z,15.68
2023-05-10T10:44:27.203Z,15.84
2023-05-10T10:47:30.964Z,15.78
2023-05-10T10:50:06.661Z,15.70
2023-05-10T10:52:45.327Z,15.86
2023-05-10T10:55:19.341Z,16.03
2023-05-10T10:57:56.435Z,16.54
2023-05-10T11:00:34.519Z,16.55
2023-05-10T11:03:07.287Z,16.52
2023-05-10T11:05:34.037Z,16.67
2023-05-10T11:08:01.739Z,16.64
2023-05-10T11:10:28.602Z,16.44
2023-05-10T11:13:09.408Z,16.50
2023-05-10T11:15:38.262Z,16.43
2023-05-10T11:18:28.313Z,16.60
2023-05-10T11:20:59.943Z,16.73
2023-05-10T11:23:44.908Z,16.77
2023-05-10T11:26:12.945Z,16.92
2023-05-10T11:28:47.153Z,16.99
2023-05-10T11:31:18.487Z,17.21
2023-05-10T11:33:49.340Z,17.66
2023-05-10T11:36:18.392Z,17.87
2023-05-10T11:38:45.396Z,17.88
2023-05-10T11:41:13.371Z,17.76
2023-05-10T11:43:41.267Z,17.72
2023-05-10T11:46:11.461Z,17.55
2023-05-10T11:48:40.761Z,17.56
2023-05-10T11:51:12.106Z,17.65
2023-05-10T11:53:42.132Z,17.48
2023-05-10T11:56:10.254Z,17.51
2023-05-10T11:58:38.678Z,17.61
2023-05-10T12:01:07.412Z,17.56
2023-05-10T12:03:35.037Z,17.54
2023-05-10T12:06:03.098Z,17.59
2023-05-10T12:08:30.868Z,17.61
2023-05-10T12:11:14.715Z,17.63
2023-05-10T12:13:42.869Z,17.66
2023-05-10T12:16:18.185Z,17.52
2023-05-10T12:18:46.605Z,17.39
2023-05-10T12:21:13.834Z,17.25
2023-05-10T12:23:40.842Z,17.18
2023-05-10T12:26:10.053Z,17.03
2023-05-10T12:28:36.750Z,17.01
2023-05-10T12:31:04.240Z,17.06
2023-05-10T12:33:39.973Z,17.06
2023-05-10T12:36:07.837Z,17.03
2023-05-10T12:38:36.805Z,16.83
2023-05-10T12:41:05.646Z,16.68
2023-05-10T12:43:33.153Z,16.70
2023-05-10T12:46:00.239Z,16.58
2023-05-10T12:48:27.031Z,16.53
2023-05-10T12:50:53.733Z,16.60
2023-05-10T12:53:20.848Z,16.51
2023-05-10T12:55:47.565Z,16.38
2023-05-10T12:58:31.445Z,16.29
2023-05-10T13:01:02.112Z,16.33
2023-05-10T13:03:28.913Z,16.41
2023-05-10T13:05:55.519Z,16.43
2023-05-10T13:08:22.242Z,16.37
2023-05-10T13:10:49.384Z,16.37
2023-05-10T13:13:16.867Z,16.30
2023-05-10T13:15:43.451Z,16.28
2023-05-10T13:18:10.230Z,16.29
2023-05-10T13:20:36.964Z,16.26
2023-05-10T13:23:03.900Z,16.29
2023-05-10T13:25:31.016Z,16.35
2023-05-10T13:27:57.697Z,16.33
2023-05-10T13:30:24.981Z,16.35
2023-05-10T13:32:51.872Z,16.37
2023-05-10T13:35:18.563Z,16.34
2023-05-10T13:37:45.266Z,16.37
2023-05-10T13:40:12.577Z,16.37
2023-05-10T13:42:39.343Z,16.29
2023-05-10T13:45:06.955Z,16.43
2023-05-10T13:47:33.931Z,16.53
2023-05-10T13:50:00.701Z,16.49
2023-05-10T13:52:27.699Z,16.59
2023-05-10T13:54:56.289Z,16.61
2023-05-10T13:57:24.154Z,16.57
2023-05-10T13:59:51.351Z,16.55
2023-05-10T14:02:18.288Z,16.62
2023-05-10T14:04:44.935Z,16.60
2023-05-10T14:07:11.608Z,16.52
2023-05-10T14:09:38.309Z,16.53
2023-05-10T14:12:05.036Z,16.56
2023-05-10T14:14:31.725Z,16.56
2023-05-10T14:16:58.470Z,16.62
2023-05-10T14:19:25.177Z,16.67
2023-05-10T14:21:53.038Z,16.58
2023-05-10T14:24:19.782Z,16.50
2023-05-10T14:26:46.378Z,16.22
2023-05-10T14:29:13.004Z,15.94
2023-05-10T14:31:40.019Z,15.69
2023-05-10T14:34:06.986Z,15.21
2023-05-10T14:36:33.739Z,15.07
2023-05-10T14:39:00.468Z,14.98
2023-05-10T14:41:27.052Z,14.44
2023-05-10T14:43:54.178Z,14.26
2023-05-10T14:46:20.846Z,14.02
2023-05-10T14:48:47.604Z,13.65
2023-05-10T14:51:14.397Z,13.22
2023-05-10T14:53:41.207Z,13.39
2023-05-10T14:56:08.038Z,13.24
2023-05-10T14:58:34.727Z,13.37
2023-05-10T15:01:01.808Z,13.30
2023-05-10T15:03:29.167Z,13.20
2023-05-10T15:05:58.616Z,13.29
2023-05-10T15:08:28.822Z,13.47
2023-05-10T15:10:56.960Z,13.51
2023-05-10T15:13:23.604Z,13.49
2023-05-10T15:15:50.236Z,13.50
2023-05-10T15:18:17.339Z,13.50
2023-05-10T15:20:44.260Z,13.46
2023-05-10T15:23:10.930Z,13.47
2023-05-10T15:25:38.558Z,13.47
2023-05-10T15:28:05.644Z,13.42
2023-05-10T15:30:32.328Z,13.47
2023-05-10T15:32:59.214Z,13.48
2023-05-10T15:35:27.162Z,13.48
2023-05-10T15:37:53.821Z,13.43
2023-05-10T15:40:20.463Z,13.44
2023-05-10T15:42:47.105Z,13.49
2023-05-10T15:45:14.220Z,13.51
2023-05-10T15:47:40.970Z,13.48
2023-05-10T15:50:08.442Z,13.51
2023-05-10T15:52:35.262Z,13.53
2023-05-10T15:55:02.123Z,13.53
2023-05-10T15:57:28.817Z,13.57
2023-05-10T15:59:56.370Z,13.63
2023-05-10T16:02:23.559Z,13.66
2023-05-10T16:04:50.398Z,13.70
2023-05-10T16:07:17.086Z,13.65
2023-05-10T16:09:44.079Z,13.70
2023-05-10T16:12:12.215Z,13.58
2023-05-10T16:14:38.873Z,13.56
2023-05-10T16:17:05.930Z,13.56
2023-05-10T16:19:32.698Z,13.59
2023-05-10T16:21:59.470Z,13.64
2023-05-10T16:24:26.586Z,13.68
2023-05-10T16:26:53.535Z,13.64
2023-05-10T16:29:20.310Z,13.63
2023-05-10T16:31:47.014Z,13.70
2023-05-10T16:34:13.794Z,13.77
2023-05-10T16:36:40.517Z,13.80
2023-05-10T16:39:07.415Z,13.82
2023-05-10T16:41:34.606Z,13.77
2023-05-10T16:44:01.985Z,13.80
2023-05-10T16:46:28.745Z,13.82
2023-05-10T16:48:56.057Z,13.83
2023-05-10T16:51:22.751Z,13.84
2023-05-10T16:53:49.791Z,13.85
2023-05-10T16:56:18.424Z,13.88
2023-05-10T16:58:46.697Z,13.90
2023-05-10T17:01:13.371Z,13.90
2023-05-10T17:03:40.151Z,13.85
2023-05-10T17:06:07.448Z,13.88
2023-05-10T17:08:34.828Z,13.90
2023-05-10T17:11:03.395Z,13.94
2023-05-10T17:13:30.533Z,13.95
2023-05-10T17:15:57.296Z,13.97
2023-05-10T17:18:24.069Z,13.95
2023-05-10T17:20:50.899Z,13.94
2023-05-10T17:23:17.577Z,13.93
2023-05-10T17:25:44.275Z,13.96
2023-05-10T17:28:11.012Z,13.92
2023-05-10T17:30:37.992Z,13.94
2023-05-10T17:33:05.565Z,13.98
2023-05-10T17:35:32.315Z,13.99
2023-05-10T17:37:59.042Z,14.01
2023-05-10T17:40:25.735Z,13.99
2023-05-10T17:42:52.367Z,14.02
2023-05-10T17:45:20.011Z,14.03
2023-05-10T17:47:46.812Z,14.02
2023-05-10T17:50:13.431Z,14.03
2023-05-10T17:52:40.105Z,14.04
2023-05-10T17:55:07.638Z,14.05
2023-05-10T17:57:34.860Z,13.96
2023-05-10T18:00:03.957Z,13.96
2023-05-10T18:02:30.670Z,13.96
2023-05-10T18:04:59.980Z,13.96
2023-05-10T18:07:27.222Z,13.96
2023-05-10T18:09:53.854Z,13.97
2023-05-10T18:12:20.522Z,13.98
2023-05-10T18:14:47.292Z,13.98
2023-05-10T18:17:14.034Z,13.97
2023-05-10T18:19:41.003Z,13.92
2023-05-10T18:22:10.470Z,13.87
2023-05-10T18:24:39.480Z,13.76
2023-05-10T18:27:11.393Z,13.68
2023-05-10T18:29:38.386Z,13.70
2023-05-10T18:32:06.846Z,13.66
2023-05-10T18:34:33.527Z,13.62
2023-05-10T18:37:00.328Z,13.63
2023-05-10T18:39:26.957Z,13.55
2023-05-10T18:41:53.742Z,13.54
2023-05-10T18:44:21.957Z,13.56
2023-05-10T18:46:48.647Z,13.56
2023-05-10T18:49:15.314Z,13.55
2023-05-10T18:51:41.928Z,13.54
2023-05-10T18:54:08.609Z,13.57
2023-05-10T18:56:35.295Z,13.53
2023-05-10T18:59:02.011Z,13.52
2023-05-10T19:01:28.696Z,13.50
2023-05-10T19:03:55.397Z,13.49
2023-05-10T19:06:22.061Z,13.47
2023-05-10T19:08:48.742Z,13.44
2023-05-10T19:11:15.720Z,13.42
2023-05-10T19:13:42.839Z,13.40
2023-05-10T19:16:16.655Z,13.38
2023-05-10T19:18:45.419Z,13.37
2023-05-10T19:21:12.663Z,13.33
2023-05-10T19:23:41.634Z,13.33
2023-05-10T19:26:09.204Z,13.31
2023-05-10T19:28:35.820Z,13.30
2023-05-10T19:31:02.618Z,13.29
2023-05-10T19:33:29.634Z,13.28
2023-05-10T19:35:56.386Z,13.25
2023-05-10T19:38:24.245Z,13.23
2023-05-10T19:41:00.114Z,13.19
2023-05-10T19:43:27.792Z,13.17
2023-05-10T19:45:55.112Z,13.17
2023-05-10T19:48:21.741Z,13.13
2023-05-10T19:50:48.333Z,13.11
2023-05-10T19:53:14.969Z,13.11
2023-05-10T19:55:41.712Z,13.08
2023-05-10T19:58:08.697Z,13.05
2023-05-10T20:00:35.622Z,13.04
2023-05-10T20:03:03.233Z,13.00
2023-05-10T20:05:29.794Z,12.97
2023-05-10T20:07:56.501Z,12.96
2023-05-10T20:10:25.153Z,12.93
2023-05-10T20:12:53.902Z,12.91
2023-05-10T20:15:22.887Z,12.88
2023-05-10T20:17:53.874Z,12.85
2023-05-10T20:20:21.711Z,12.84
2023-05-10T20:22:48.893Z,12.82
2023-05-10T20:25:16.750Z,12.79
2023-05-10T20:27:43.356Z,12.78
2023-05-10T20:30:10.842Z,12.78
2023-05-10T20:32:38.090Z,12.75
2023-05-10T20:35:05.925Z,12.74
2023-05-10T20:37:32.525Z,12.70
2023-05-10T20:39:59.167Z,12.68
2023-05-10T20:42:25.749Z,12.67
2023-05-10T20:44:52.416Z,12.65
2023-05-10T20:47:19.458Z,12.62
2023-05-10T20:49:46.324Z,12.64
2023-05-10T20:52:13.092Z,12.60
2023-05-10T20:54:39.736Z,12.58
2023-05-10T20:57:06.549Z,12.56
2023-05-10T20:59:33.379Z,12.57
2023-05-10T21:02:00.252Z,12.57
2023-05-10T21:04:27.252Z,12.56
2023-05-10T21:06:55.660Z,12.55
2023-05-10T21:09:22.697Z,12.53
2023-05-10T21:11:50.462Z,12.52
2023-05-10T21:14:17.075Z,12.53
2023-05-10T21:16:43.798Z,12.51
2023-05-10T21:19:10.590Z,12.51
2023-05-10T21:21:37.310Z,12.50
2023-05-10T21:24:04.301Z,12.50
2023-05-10T21:26:31.407Z,12.51
2023-05-10T21:28:59.333Z,12.50
2023-05-10T21:31:26.051Z,12.50
2023-05-10T21:33:52.699Z,12.46
2023-05-10T21:36:19.501Z,12.46
2023-05-10T21:38:46.806Z,12.46
2023-05-10T21:41:13.552Z,12.45
2023-05-10T21:43:40.321Z,12.47
2023-05-10T21:46:07.535Z,12.48
2023-05-10T21:48:34.164Z,12.48
2023-05-10T21:51:01.744Z,12.44
2023-05-10T21:53:28.895Z,12.42
2023-05-10T21:55:56.466Z,12.40
2023-05-10T21:58:23.584Z,12.39
2023-05-10T22:00:50.233Z,12.41
2023-05-10T22:03:17.876Z,12.42
2023-05-10T22:05:44.657Z,12.44
2023-05-10T22:08:11.304Z,12.43
2023-05-10T22:10:37.922Z,12.43
2023-05-10T22:13:04.764Z,12.41
2023-05-10T22:15:33.637Z,12.42
2023-05-10T22:18:02.469Z,12.41
2023-05-10T22:20:29.242Z,12.39
2023-05-10T22:22:56.160Z,12.39
2023-05-10T22:25:22.862Z,12.39
2023-05-10T22:27:49.466Z,12.39
2023-05-10T22:30:16.550Z,12.37
2023-05-10T22:32:43.572Z,12.36
2023-05-10T22:35:10.198Z,12.34
2023-05-10T22:37:36.817Z,12.33
2023-05-10T22:40:04.069Z,12.34
2023-05-10T22:42:30.779Z,12.33
2023-05-10T22:44:58.807Z,12.32
2023-05-10T22:47:25.732Z,12.29
2023-05-10T22:49:52.487Z,12.30
2023-05-10T22:52:19.166Z,12.31
2023-05-10T22:54:45.896Z,12.28
2023-05-10T22:57:12.820Z,12.27
2023-05-10T22:59:39.498Z,12.26
2023-05-10T23:02:06.297Z,12.26
2023-05-10T23:04:32.971Z,12.24
2023-05-10T23:06:59.626Z,12.25
2023-05-10T23:09:26.281Z,12.26
2023-05-10T23:11:52.933Z,12.23
2023-05-10T23:14:19.574Z,12.22
2023-05-10T23:16:46.238Z,12.22
2023-05-10T23:19:12.967Z,12.22
2023-05-10T23:21:39.582Z,12.22
2023-05-10T23:24:08.572Z,12.22
2023-05-10T23:26:35.306Z,12.20
2023-05-10T23:29:02.404Z,12.21
2023-05-10T23:31:29.083Z,12.21
2023-05-10T23:33:55.939Z,12.20
2023-05-10T23:36:22.576Z,12.22
2023-05-10T23:38:49.193Z,12.21
2023-05-10T23:41:15.827Z,12.18
2023-05-10T23:43:42.487Z,12.18
2023-05-10T23:46:09.180Z,12.18
2023-05-10T23:48:35.973Z,12.18
2023-05-10T23:51:02.652Z,12.18
2023-05-10T23:53:29.433Z,12.19
2023-05-10T23:55:56.191Z,12.18
2023-05-10T23:58:22.880Z,12.19
